createdAt,value
2023-05-21T00:01:29.783Z,85.90
2023-05-21T00:03:57.288Z,85.60
2023-05-21T00:06:25.014Z,86.10
2023-05-21T00:08:52.400Z,85.60
2023-05-21T00:11:19.804Z,85.50
2023-05-21T00:13:47.197Z,85.50
2023-05-21T00:16:17.137Z,85.50
2023-05-21T00:32:04.268Z,86.00
2023-05-21T00:34:35.166Z,85.80
2023-05-21T00:43:41.130Z,86.00
2023-05-21T00:46:16.740Z,86.00
2023-05-21T00:51:55.609Z,86.00
2023-05-21T00:54:24.884Z,86.00
2023-05-21T01:06:14.444Z,85.80
2023-05-21T01:09:45.221Z,86.30
2023-05-21T01:52:50.581Z,87.30
2023-05-21T01:55:18.606Z,87.40
2023-05-21T01:57:46.305Z,88.60
2023-05-21T02:00:15.171Z,87.70
2023-05-21T02:02:47.735Z,87.60
2023-05-21T02:29:19.117Z,88.60
2023-05-21T02:31:47.272Z,87.50
2023-05-21T03:16:49.144Z,89.70
2023-05-21T03:19:18.554Z,90.10
2023-05-21T03:21:46.279Z,90.00
2023-05-21T03:24:15.014Z,90.10
2023-05-21T03:26:42.417Z,90.10
2023-05-21T03:29:09.801Z,90.10
2023-05-21T03:31:39.763Z,90.30
2023-05-21T03:34:09.776Z,90.10
2023-05-21T03:36:37.147Z,90.10
2023-05-21T03:39:04.572Z,90.10
2023-05-21T03:41:34.055Z,90.10
2023-05-21T03:44:08.297Z,90.20
2023-05-21T03:46:48.190Z,90.40
2023-05-21T03:49:22.216Z,90.50
2023-05-21T03:51:52.275Z,90.30
2023-05-21T03:54:21.084Z,90.40
2023-05-21T03:56:50.455Z,91.00
2023-05-21T03:59:17.803Z,90.60
2023-05-21T04:01:45.854Z,90.60
2023-05-21T04:04:16.183Z,90.60
2023-05-21T04:06:43.892Z,90.60
2023-05-21T04:09:13.035Z,90.70
2023-05-21T04:11:40.508Z,90.70
2023-05-21T04:14:07.979Z,90.70
2023-05-21T04:22:43.805Z,90.80
2023-05-21T04:25:12.106Z,90.70
2023-05-21T04:27:40.019Z,90.80
2023-05-21T04:30:09.759Z,90.90
2023-05-21T04:32:38.411Z,91.00
2023-05-21T04:35:08.331Z,91.30
2023-05-21T04:37:36.187Z,91.00
2023-05-21T04:40:04.028Z,91.00
2023-05-21T04:42:32.933Z,91.00
2023-05-21T04:45:00.719Z,91.10
2023-05-21T04:47:30.342Z,91.10
2023-05-21T04:49:59.817Z,91.40
2023-05-21T04:52:28.420Z,91.10
2023-05-21T04:54:55.812Z,91.20
2023-05-21T04:57:24.914Z,91.00
2023-05-21T04:59:52.672Z,91.00
2023-05-21T05:02:20.144Z,91.00
2023-05-21T05:04:47.494Z,90.90
2023-05-21T05:07:15.546Z,90.90
2023-05-21T05:09:44.076Z,91.30
2023-05-21T05:12:11.478Z,91.10
2023-05-21T05:14:38.762Z,91.20
2023-05-21T05:17:08.447Z,90.80
2023-05-21T05:19:36.527Z,90.70
2023-05-21T05:22:04.123Z,90.60
2023-05-21T05:24:31.957Z,90.50
2023-05-21T05:27:00.187Z,90.40
2023-05-21T05:29:27.594Z,90.30
2023-05-21T05:31:55.392Z,90.20
2023-05-21T05:34:22.860Z,90.20
2023-05-21T05:36:50.294Z,90.10
2023-05-21T05:39:17.740Z,90.10
2023-05-21T05:41:46.556Z,90.00
2023-05-21T05:44:14.066Z,89.90
2023-05-21T05:46:41.592Z,90.20
2023-05-21T05:49:09.157Z,89.80
2023-05-21T05:51:37.242Z,90.20
2023-05-21T05:54:05.223Z,89.60
2023-05-21T05:56:33.742Z,89.60
2023-05-21T06:02:32.542Z,89.20
2023-05-21T06:05:00.035Z,89.40
2023-05-21T06:07:27.552Z,88.80
2023-05-21T06:09:54.932Z,89.20
2023-05-21T06:12:22.296Z,88.90
2023-05-21T06:16:25.186Z,89.60
2023-05-21T06:18:53.532Z,88.90
2023-05-21T06:32:48.901Z,87.70
2023-05-21T06:35:16.820Z,87.80
2023-05-21T06:37:44.719Z,86.80
2023-05-21T06:40:14.976Z,86.80
2023-05-21T06:42:45.793Z,86.40
2023-05-21T06:45:37.735Z,85.70
2023-05-21T06:48:21.556Z,85.80
2023-05-21T06:50:49.715Z,86.10
2023-05-21T06:53:21.467Z,85.10
2023-05-21T06:55:53.514Z,86.10
2023-05-21T06:58:31.362Z,85.80
2023-05-21T07:00:59.899Z,85.40
2023-05-21T07:03:28.188Z,85.10
2023-05-21T07:05:57.191Z,84.50
2023-05-21T07:08:24.784Z,84.80
2023-05-21T07:10:52.553Z,83.80
2023-05-21T07:13:20.511Z,83.20
2023-05-21T07:15:48.262Z,83.00
2023-05-21T07:18:16.774Z,81.90
2023-05-21T07:20:45.097Z,82.90
2023-05-21T07:23:15.504Z,81.40
2023-05-21T07:25:42.869Z,81.90
2023-05-21T07:28:10.416Z,79.90
2023-05-21T07:30:38.865Z,79.90
2023-05-21T07:33:10.598Z,78.80
2023-05-21T07:35:38.401Z,79.60
2023-05-21T07:38:06.152Z,79.10
2023-05-21T07:40:33.956Z,79.00
2023-05-21T07:43:03.479Z,77.60
2023-05-21T07:45:32.214Z,77.60
2023-05-21T07:47:59.773Z,77.00
2023-05-21T07:50:28.500Z,76.60
2023-05-21T07:52:55.883Z,77.00
2023-05-21T07:55:23.509Z,75.70
2023-05-21T07:57:52.380Z,75.80
2023-05-21T08:00:25.198Z,75.80
2023-05-21T08:02:56.172Z,75.10
2023-05-21T08:05:25.818Z,74.40
2023-05-21T08:07:53.622Z,74.70
2023-05-21T08:10:21.938Z,74.30
2023-05-21T08:12:51.193Z,74.00
2023-05-21T08:15:19.852Z,73.20
2023-05-21T08:17:47.574Z,73.80
2023-05-21T08:20:16.004Z,73.20
2023-05-21T08:22:46.036Z,72.90
2023-05-21T08:25:13.733Z,73.30
2023-05-21T08:27:42.632Z,73.70
2023-05-21T08:30:11.518Z,73.80
2023-05-21T08:32:39.503Z,73.70
2023-05-21T08:35:08.342Z,72.30
2023-05-21T08:37:46.216Z,70.80
2023-05-21T08:40:27.902Z,71.00
2023-05-21T08:42:56.066Z,71.00
2023-05-21T08:45:42.304Z,70.10
2023-05-21T08:48:13.866Z,68.80
2023-05-21T08:50:42.463Z,67.80
2023-05-21T08:53:28.061Z,66.60
2023-05-21T08:55:57.702Z,66.70
2023-05-21T08:58:33.711Z,66.10
2023-05-21T09:01:01.874Z,66.30
2023-05-21T09:03:31.882Z,66.60
2023-05-21T09:06:00.611Z,64.00
2023-05-21T09:08:38.681Z,63.40
2023-05-21T09:11:17.327Z,63.00
2023-05-21T09:13:52.709Z,61.50
2023-05-21T09:16:28.319Z,60.00
2023-05-21T09:18:55.980Z,59.00
2023-05-21T09:21:29.130Z,58.90
2023-05-21T09:24:01.976Z,58.50
2023-05-21T09:26:30.327Z,57.80
2023-05-21T09:29:02.544Z,56.40
2023-05-21T09:31:31.145Z,54.80
2023-05-21T09:33:58.809Z,54.00
2023-05-21T09:36:29.354Z,54.40
2023-05-21T09:38:59.812Z,53.70
2023-05-21T09:41:35.779Z,52.50
2023-05-21T09:44:05.029Z,53.50
2023-05-21T09:46:41.912Z,53.20
2023-05-21T09:49:26.472Z,53.10
2023-05-21T09:51:57.950Z,53.40
2023-05-21T09:54:30.984Z,53.60
2023-05-21T09:57:01.321Z,53.90
2023-05-21T09:59:40.791Z,53.20
2023-05-21T10:02:22.410Z,54.40
2023-05-21T10:04:51.980Z,54.20
2023-05-21T10:07:27.002Z,54.70
2023-05-21T10:09:57.686Z,54.80
2023-05-21T10:12:26.071Z,55.60
2023-05-21T10:15:09.783Z,54.50
2023-05-21T10:17:39.256Z,56.20
2023-05-21T10:20:10.559Z,55.30
2023-05-21T10:22:38.107Z,54.60
2023-05-21T10:25:07.793Z,55.20
2023-05-21T10:27:37.244Z,56.30
2023-05-21T10:30:06.146Z,55.90
2023-05-21T10:32:33.980Z,55.80
2023-05-21T10:35:02.625Z,55.40
2023-05-21T10:37:31.220Z,56.30
2023-05-21T10:39:59.017Z,56.90
2023-05-21T10:42:30.235Z,56.50
2023-05-21T10:45:24.632Z,57.10
2023-05-21T10:48:13.283Z,56.60
2023-05-21T10:51:21.820Z,55.90
2023-05-21T10:54:27.394Z,56.80
2023-05-21T10:57:16.192Z,57.60
2023-05-21T10:59:48.161Z,56.60
2023-05-21T11:02:17.803Z,56.30
2023-05-21T11:04:49.004Z,56.80
2023-05-21T11:07:24.557Z,55.30
2023-05-21T11:09:52.035Z,56.70
2023-05-21T11:12:22.982Z,56.90
2023-05-21T11:14:58.133Z,57.10
2023-05-21T11:17:40.472Z,56.40
2023-05-21T11:20:10.603Z,56.90
2023-05-21T11:22:38.270Z,55.90
2023-05-21T11:25:06.539Z,56.70
2023-05-21T11:27:41.782Z,56.30
2023-05-21T11:30:14.724Z,57.10
2023-05-21T11:33:16.282Z,56.50
2023-05-21T11:36:01.832Z,56.50
2023-05-21T11:38:31.679Z,56.30
2023-05-21T11:41:03.414Z,56.00
2023-05-21T11:43:31.128Z,55.30
2023-05-21T11:45:59.384Z,55.80
2023-05-21T11:48:28.923Z,56.70
2023-05-21T11:50:58.352Z,52.80
2023-05-21T11:53:25.858Z,51.60
2023-05-21T11:55:57.227Z,51.00
2023-05-21T11:58:25.820Z,50.80
2023-05-21T12:00:53.947Z,50.00
2023-05-21T12:03:26.630Z,49.60
2023-05-21T12:05:54.438Z,49.60
2023-05-21T12:08:25.451Z,49.70
2023-05-21T12:10:59.187Z,50.20
2023-05-21T12:13:26.874Z,50.60
2023-05-21T12:15:54.577Z,50.60
2023-05-21T12:18:22.130Z,50.60
2023-05-21T12:20:52.071Z,50.80
2023-05-21T12:23:20.911Z,50.10
2023-05-21T12:25:49.160Z,49.80
2023-05-21T12:28:17.152Z,49.50
2023-05-21T12:30:44.565Z,50.10
2023-05-21T12:33:12.552Z,50.70
2023-05-21T12:35:39.907Z,50.30
2023-05-21T12:38:09.602Z,49.70
2023-05-21T12:40:39.230Z,49.90
2023-05-21T12:43:08.103Z,49.60
2023-05-21T12:45:37.178Z,49.70
2023-05-21T12:48:05.007Z,50.70
2023-05-21T12:50:33.448Z,51.00
2023-05-21T12:53:00.909Z,49.60
2023-05-21T12:55:28.523Z,50.20
2023-05-21T12:58:05.000Z,49.60
2023-05-21T13:00:34.477Z,49.70
2023-05-21T13:03:04.240Z,50.30
2023-05-21T13:05:31.929Z,49.70
2023-05-21T13:07:59.292Z,49.80
2023-05-21T13:10:26.614Z,50.60
2023-05-21T13:12:53.983Z,51.30
2023-05-21T13:15:22.217Z,52.50
2023-05-21T13:17:50.613Z,50.60
2023-05-21T13:20:23.707Z,49.50
2023-05-21T13:22:52.068Z,49.90
2023-05-21T13:25:21.983Z,48.00
2023-05-21T13:27:50.758Z,46.60
2023-05-21T13:30:18.960Z,46.60
2023-05-21T13:32:46.676Z,45.60
2023-05-21T13:35:16.292Z,46.00
2023-05-21T13:37:43.931Z,45.10
2023-05-21T13:40:16.354Z,44.80
2023-05-21T13:42:45.392Z,44.90
2023-05-21T13:45:14.727Z,46.50
2023-05-21T13:47:42.710Z,45.70
2023-05-21T13:50:10.821Z,44.70
2023-05-21T13:52:39.111Z,44.60
2023-05-21T13:55:06.915Z,45.00
2023-05-21T13:57:34.403Z,44.50
2023-05-21T14:00:02.427Z,45.00
2023-05-21T14:02:35.236Z,44.60
2023-05-21T14:05:02.674Z,45.10
2023-05-21T14:07:31.223Z,44.70
2023-05-21T14:09:58.643Z,45.40
2023-05-21T14:12:26.805Z,45.10
2023-05-21T14:14:54.175Z,45.50
2023-05-21T14:17:21.564Z,45.10
2023-05-21T14:19:49.042Z,45.20
2023-05-21T14:22:16.394Z,46.60
2023-05-21T14:24:44.073Z,46.00
2023-05-21T14:27:13.153Z,44.80
2023-05-21T14:29:42.454Z,43.90
2023-05-21T14:32:09.826Z,43.40
2023-05-21T14:34:38.390Z,43.90
2023-05-21T14:37:06.196Z,44.30
2023-05-21T14:39:33.581Z,43.60
2023-05-21T14:42:04.522Z,44.40
2023-05-21T14:44:32.602Z,44.60
2023-05-21T14:47:00.536Z,44.60
2023-05-21T14:49:28.312Z,44.30
2023-05-21T14:51:55.805Z,45.00
2023-05-21T14:54:23.203Z,44.70
2023-05-21T14:56:50.559Z,44.00
2023-05-21T14:59:17.880Z,44.40
2023-05-21T15:01:45.415Z,44.20
2023-05-21T15:04:12.974Z,44.00
2023-05-21T15:06:41.909Z,44.50
2023-05-21T15:09:09.297Z,45.80
2023-05-21T15:11:36.718Z,44.90
2023-05-21T15:14:04.500Z,44.10
2023-05-21T15:16:31.864Z,44.40
2023-05-21T15:18:59.326Z,43.80
2023-05-21T15:21:28.466Z,45.40
2023-05-21T15:23:55.954Z,45.10
2023-05-21T15:26:25.292Z,44.40
2023-05-21T15:28:52.968Z,43.70
2023-05-21T15:31:20.605Z,44.00
2023-05-21T15:33:48.935Z,43.50
2023-05-21T15:36:16.354Z,44.10
2023-05-21T15:38:44.085Z,44.50
2023-05-21T15:41:11.436Z,44.50
2023-05-21T15:43:38.778Z,44.70
2023-05-21T15:46:06.654Z,45.00
2023-05-21T15:48:34.475Z,44.10
2023-05-21T15:51:01.851Z,45.00
2023-05-21T15:53:29.273Z,43.80
2023-05-21T15:55:57.498Z,44.00
2023-05-21T15:58:25.119Z,44.20
2023-05-21T16:00:52.431Z,43.10
2023-05-21T16:03:20.401Z,43.60
2023-05-21T16:05:47.761Z,43.70
2023-05-21T16:08:15.154Z,43.70
2023-05-21T16:10:45.826Z,43.60
2023-05-21T16:13:13.900Z,44.00
2023-05-21T16:15:41.366Z,44.20
2023-05-21T16:18:09.890Z,44.00
2023-05-21T16:20:37.599Z,44.20
2023-05-21T16:23:06.314Z,44.70
2023-05-21T16:25:35.513Z,44.30
2023-05-21T16:28:03.760Z,45.00
2023-05-21T16:30:31.114Z,43.00
2023-05-21T16:32:58.667Z,42.30
2023-05-21T16:35:26.003Z,42.30
2023-05-21T16:37:53.358Z,41.70
2023-05-21T16:40:20.805Z,41.60
2023-05-21T16:42:48.231Z,41.50
2023-05-21T16:45:20.600Z,42.60
2023-05-21T16:47:49.007Z,42.10
2023-05-21T16:50:17.422Z,42.00
2023-05-21T16:52:45.880Z,41.90
2023-05-21T16:55:13.272Z,42.00
2023-05-21T16:57:40.697Z,41.80
2023-05-21T17:00:08.606Z,42.80
2023-05-21T17:02:36.242Z,42.20
2023-05-21T17:05:04.059Z,43.30
2023-05-21T17:07:31.571Z,42.70
2023-05-21T17:09:59.045Z,42.30
2023-05-21T17:12:26.389Z,42.10
2023-05-21T17:14:54.291Z,41.30
2023-05-21T17:17:22.776Z,41.50
2023-05-21T17:19:50.206Z,41.00
2023-05-21T17:22:17.640Z,41.00
2023-05-21T17:24:46.033Z,41.40
2023-05-21T17:27:13.495Z,41.30
2023-05-21T17:29:42.302Z,41.30
2023-05-21T17:32:10.608Z,41.20
2023-05-21T17:34:38.481Z,41.40
2023-05-21T17:37:06.010Z,42.20
2023-05-21T17:39:33.361Z,41.60
2023-05-21T17:42:01.409Z,42.40
2023-05-21T17:44:28.990Z,42.50
2023-05-21T17:46:56.746Z,41.40
2023-05-21T17:49:26.017Z,41.20
2023-05-21T17:51:54.898Z,42.00
2023-05-21T17:54:22.532Z,42.90
2023-05-21T17:56:50.228Z,43.10
2023-05-21T17:59:17.790Z,42.80
2023-05-21T18:01:45.255Z,45.80
2023-05-21T18:04:13.995Z,47.70
2023-05-21T18:06:42.688Z,45.50
2023-05-21T18:09:13.096Z,48.20
2023-05-21T18:11:42.570Z,43.70
2023-05-21T18:14:10.640Z,45.10
2023-05-21T18:16:38.047Z,47.50
2023-05-21T18:19:06.643Z,46.50
2023-05-21T18:21:37.708Z,44.10
2023-05-21T18:24:06.409Z,44.20
2023-05-21T18:26:33.816Z,46.40
2023-05-21T18:29:01.285Z,48.30
2023-05-21T18:31:29.065Z,48.80
2023-05-21T18:33:56.841Z,49.20
2023-05-21T18:36:24.116Z,50.00
2023-05-21T18:38:52.200Z,51.30
2023-05-21T18:41:20.052Z,51.80
2023-05-21T18:43:47.432Z,51.70
2023-05-21T18:46:14.919Z,53.60
2023-05-21T18:48:42.327Z,53.00
2023-05-21T18:51:10.077Z,55.00
2023-05-21T18:53:38.537Z,55.00
2023-05-21T18:56:07.527Z,56.30
2023-05-21T18:58:35.846Z,56.10
2023-05-21T19:01:04.439Z,56.20
2023-05-21T19:03:32.687Z,56.70
2023-05-21T19:06:00.318Z,57.10
2023-05-21T19:08:27.763Z,57.70
2023-05-21T19:10:56.840Z,58.60
2023-05-21T19:13:24.825Z,59.00
2023-05-21T19:15:52.976Z,59.40
2023-05-21T19:18:21.152Z,58.90
2023-05-21T19:20:50.258Z,58.60
2023-05-21T19:23:18.184Z,59.70
2023-05-21T19:25:45.976Z,58.60
2023-05-21T19:28:13.391Z,59.80
2023-05-21T19:30:41.018Z,58.40
2023-05-21T19:33:08.470Z,59.00
2023-05-21T19:35:37.652Z,59.40
2023-05-21T19:38:05.762Z,60.10
2023-05-21T19:40:33.630Z,60.70
2023-05-21T19:43:01.300Z,61.50
2023-05-21T19:45:28.764Z,62.00
2023-05-21T19:47:56.792Z,62.10
2023-05-21T19:50:24.494Z,59.90
2023-05-21T19:52:52.126Z,61.20
2023-05-21T19:55:20.190Z,60.00
2023-05-21T19:57:47.810Z,60.10
2023-05-21T20:00:15.701Z,60.30
2023-05-21T20:02:43.302Z,59.50
2023-05-21T20:05:10.670Z,60.40
2023-05-21T20:07:38.040Z,59.70
2023-05-21T20:10:06.257Z,61.00
2023-05-21T20:12:33.579Z,62.60
2023-05-21T20:15:01.212Z,63.40
2023-05-21T20:17:30.351Z,63.80
2023-05-21T20:19:58.995Z,64.80
2023-05-21T20:22:26.569Z,64.80
2023-05-21T20:24:54.182Z,65.20
2023-05-21T20:27:21.524Z,65.10
2023-05-21T20:29:49.241Z,66.30
2023-05-21T20:32:16.583Z,66.10
2023-05-21T20:35:01.693Z,66.00
2023-05-21T20:37:33.955Z,66.20
2023-05-21T20:40:01.537Z,66.30
2023-05-21T20:42:34.099Z,66.70
2023-05-21T20:45:02.926Z,67.30
2023-05-21T20:47:30.781Z,68.30
2023-05-21T20:49:59.540Z,67.80
2023-05-21T20:52:26.936Z,68.30
2023-05-21T20:54:59.554Z,68.20
2023-05-21T20:57:28.213Z,68.40
2023-05-21T20:59:56.163Z,68.90
2023-05-21T21:02:23.583Z,68.90
2023-05-21T21:04:51.178Z,67.60
2023-05-21T21:07:19.280Z,63.00
2023-05-21T21:09:47.232Z,64.60
2023-05-21T21:14:48.896Z,68.00
2023-05-21T21:17:16.322Z,68.50
2023-05-21T21:19:43.649Z,68.40
2023-05-21T21:22:11.138Z,68.10
2023-05-21T21:24:38.527Z,69.20
2023-05-21T21:27:06.613Z,69.40
2023-05-21T21:29:34.535Z,69.90
2023-05-21T21:32:02.597Z,70.40
2023-05-21T21:34:30.088Z,70.70
2023-05-21T21:36:57.466Z,70.70
2023-05-21T21:39:26.130Z,70.40
2023-05-21T21:41:53.500Z,71.10
2023-05-21T21:44:21.787Z,71.20
2023-05-21T21:46:49.457Z,71.00
2023-05-21T21:49:17.416Z,71.00
2023-05-21T21:51:45.499Z,71.50
2023-05-21T21:54:12.952Z,71.00
2023-05-21T21:56:40.570Z,71.10
2023-05-21T21:59:08.006Z,72.40
2023-05-21T22:01:35.876Z,71.90
2023-05-21T22:04:03.729Z,71.60
2023-05-21T22:06:31.285Z,72.50
2023-05-21T22:08:58.767Z,72.40
2023-05-21T22:11:28.345Z,72.70
2023-05-21T22:13:56.073Z,72.30
2023-05-21T22:16:28.987Z,72.60
2023-05-21T22:18:57.897Z,72.90
2023-05-21T22:21:29.139Z,73.20
2023-05-21T22:23:56.453Z,72.90
2023-05-21T22:26:24.018Z,72.50
2023-05-21T22:28:51.484Z,71.90
2023-05-21T22:31:18.875Z,72.80
2023-05-21T22:33:46.702Z,72.10
2023-05-21T22:36:14.052Z,72.00
2023-05-21T22:38:41.517Z,72.10
2023-05-21T22:41:09.138Z,72.20
2023-05-21T22:43:37.363Z,72.20
2023-05-21T22:46:04.791Z,72.10
2023-05-21T22:48:32.181Z,72.00
2023-05-21T22:51:02.008Z,72.60
2023-05-21T22:53:30.057Z,73.30
2023-05-21T22:55:58.119Z,73.10
2023-05-21T22:58:25.710Z,73.60
2023-05-21T23:00:53.092Z,73.90
2023-05-21T23:03:20.650Z,73.80
2023-05-21T23:05:48.131Z,74.60
2023-05-21T23:08:16.163Z,74.20
2023-05-21T23:10:44.154Z,74.60
2023-05-21T23:13:12.716Z,75.20
2023-05-21T23:15:43.657Z,76.10
2023-05-21T23:18:12.433Z,75.60
2023-05-21T23:20:40.974Z,75.70
2023-05-21T23:23:09.682Z,75.70
2023-05-21T23:25:37.352Z,76.30
2023-05-21T23:28:06.078Z,76.40
2023-05-21T23:30:33.461Z,77.00
2023-05-21T23:33:00.999Z,76.90
2023-05-21T23:35:28.529Z,77.50
2023-05-21T23:37:55.871Z,77.80
2023-05-21T23:40:23.321Z,77.40
2023-05-21T23:42:50.640Z,78.00
2023-05-21T23:45:18.118Z,78.60
2023-05-21T23:47:45.650Z,78.30
2023-05-21T23:50:13.014Z,77.90
2023-05-21T23:52:41.477Z,78.00
2023-05-21T23:55:11.495Z,78.00
2023-05-21T23:57:39.058Z,78.30
